createdAt,value
2023-12-05T00:02:50.790Z,100601.06
2023-12-05T00:06:02.656Z,100591.94
2023-12-05T00:08:56.794Z,100592.03
2023-12-05T00:12:05.897Z,100593.84
2023-12-05T00:15:05.735Z,100584.22
2023-12-05T00:18:00.879Z,100587.78
2023-12-05T00:20:58.126Z,100585.69
2023-12-05T00:24:17.973Z,100579.19
2023-12-05T00:27:14.305Z,100577.59
2023-12-05T00:30:08.959Z,100582.53
2023-12-05T00:33:03.146Z,100576.66
2023-12-05T00:35:57.676Z,100543.88
2023-12-05T00:39:03.160Z,100581.41
2023-12-05T00:42:00.185Z,100573.19
2023-12-05T00:45:08.441Z,100574.88
2023-12-05T00:48:22.348Z,100578.75
2023-12-05T00:51:14.309Z,100577.72
2023-12-05T00:54:16.581Z,100580.97
2023-12-05T00:57:30.208Z,100587.31
2023-12-05T01:00:28.261Z,100573.22
2023-12-05T01:03:56.694Z,100572.91
2023-12-05T01:07:15.139Z,100572.75
2023-12-05T01:10:12.358Z,100565.00
2023-12-05T01:13:08.787Z,100568.41
2023-12-05T01:15:59.841Z,100570.50
2023-12-05T01:19:02.546Z,100571.03
2023-12-05T01:22:03.499Z,100570.72
2023-12-05T01:25:04.563Z,100573.59
2023-12-05T01:28:03.064Z,100569.44
2023-12-05T01:31:00.760Z,100569.06
2023-12-05T01:34:00.037Z,100571.00
2023-12-05T01:37:06.275Z,100580.09
2023-12-05T01:40:08.649Z,100573.00
2023-12-05T01:43:01.453Z,100567.34
2023-12-05T01:45:58.319Z,100571.84
2023-12-05T01:48:56.045Z,100559.88
2023-12-05T01:51:49.469Z,100556.84
2023-12-05T01:54:41.962Z,100563.06
2023-12-05T01:57:52.372Z,100555.13
2023-12-05T02:00:47.987Z,100562.75
2023-12-05T02:03:40.216Z,100559.97
2023-12-05T02:15:36.245Z,100537.97
2023-12-05T02:18:33.211Z,100536.38
2023-12-05T02:21:32.009Z,100532.75
2023-12-05T02:24:56.251Z,100535.53
2023-12-05T02:28:01.685Z,100530.00
2023-12-05T02:31:07.341Z,100525.94
2023-12-05T02:34:02.187Z,100467.34
2023-12-05T02:37:09.674Z,100521.66
2023-12-05T02:40:12.986Z,100514.91
2023-12-05T02:43:16.153Z,100505.97
2023-12-05T02:46:12.734Z,100505.56
2023-12-05T02:49:10.883Z,100509.06
2023-12-05T02:52:05.769Z,100507.97
2023-12-05T02:54:57.487Z,100492.31
2023-12-05T02:57:49.448Z,100501.00
2023-12-05T03:00:55.384Z,100498.78
2023-12-05T03:04:00.733Z,100502.78
2023-12-05T03:07:00.579Z,100504.75
2023-12-05T03:09:54.659Z,100498.59
2023-12-05T03:12:46.462Z,100488.75
2023-12-05T03:16:02.615Z,100490.69
2023-12-05T03:19:06.248Z,100486.50
2023-12-05T03:21:56.848Z,100485.22
2023-12-05T03:24:50.531Z,100477.47
2023-12-05T03:27:50.570Z,100479.25
2023-12-05T03:30:49.767Z,100472.78
2023-12-05T03:33:54.624Z,100477.81
2023-12-05T03:36:48.055Z,100475.13
2023-12-05T03:39:41.942Z,100481.47
2023-12-05T03:42:32.992Z,100490.63
2023-12-05T03:45:30.659Z,100495.28
2023-12-05T03:48:26.512Z,100466.97
2023-12-05T03:51:20.492Z,100489.56
2023-12-05T03:54:14.330Z,100498.06
2023-12-05T03:57:04.669Z,100495.72
2023-12-05T03:59:55.125Z,100495.78
2023-12-05T04:02:48.736Z,100492.91
2023-12-05T04:05:40.887Z,100486.97
2023-12-05T04:08:34.869Z,100482.84
2023-12-05T04:11:52.554Z,100487.91
2023-12-05T04:14:43.053Z,100481.91
2023-12-05T04:17:35.930Z,100474.44
2023-12-05T04:20:29.614Z,100475.84
2023-12-05T04:23:28.365Z,100466.81
2023-12-05T04:26:20.489Z,100466.44
2023-12-05T04:29:15.936Z,100469.31
2023-12-05T04:32:04.337Z,100466.19
2023-12-05T04:34:52.001Z,100467.41
2023-12-05T04:37:41.349Z,100469.19
2023-12-05T04:40:29.128Z,100476.78
2023-12-05T04:43:17.654Z,100472.78
2023-12-05T04:46:07.472Z,100463.41
2023-12-05T04:48:55.243Z,100445.75
2023-12-05T04:51:45.146Z,100473.91
2023-12-05T04:54:33.488Z,100468.19
2023-12-05T04:57:21.752Z,100477.47
2023-12-05T05:00:14.526Z,100487.09
2023-12-05T05:03:04.109Z,100473.97
2023-12-05T05:05:52.232Z,100474.38
2023-12-05T05:08:39.953Z,100482.28
2023-12-05T05:11:28.339Z,100483.06
2023-12-05T05:14:17.454Z,100479.69
2023-12-05T05:17:06.027Z,100476.22
2023-12-05T05:19:55.807Z,100480.28
2023-12-05T05:22:46.835Z,100475.91
2023-12-05T05:25:41.107Z,100475.50
2023-12-05T05:28:30.988Z,100480.84
2023-12-05T05:31:28.223Z,100480.06
2023-12-05T05:34:19.942Z,100474.13
2023-12-05T05:37:15.613Z,100473.84
2023-12-05T05:40:10.075Z,100471.88
2023-12-05T05:43:06.123Z,100476.00
2023-12-05T05:45:56.488Z,100467.50
2023-12-05T05:48:45.998Z,100472.44
2023-12-05T05:51:41.374Z,100476.75
2023-12-05T05:54:37.547Z,100469.78
2023-12-05T05:57:29.625Z,100475.91
2023-12-05T06:00:21.882Z,100477.84
2023-12-05T06:03:23.238Z,100476.72
2023-12-05T06:06:16.595Z,100478.50
2023-12-05T06:09:08.801Z,100478.50
2023-12-05T06:12:02.090Z,100487.88
2023-12-05T06:14:56.151Z,100481.09
2023-12-05T06:17:46.808Z,100438.78
2023-12-05T06:20:39.302Z,100480.03
2023-12-05T06:23:28.630Z,100466.94
2023-12-05T06:26:22.289Z,100492.97
2023-12-05T06:29:12.999Z,100493.31
2023-12-05T06:32:03.262Z,100497.03
2023-12-05T06:34:51.261Z,100495.03
2023-12-05T06:37:39.460Z,100489.50
2023-12-05T06:40:28.780Z,100498.34
2023-12-05T06:43:23.488Z,100493.28
2023-12-05T06:46:16.983Z,100498.06
2023-12-05T06:49:08.032Z,100503.81
2023-12-05T06:52:02.825Z,100491.03
2023-12-05T06:54:55.712Z,100500.78
2023-12-05T06:57:45.216Z,100503.34
2023-12-05T07:00:42.130Z,100505.41
2023-12-05T07:03:40.425Z,100508.13
2023-12-05T07:06:32.580Z,100508.22
2023-12-05T07:09:23.180Z,100502.78
2023-12-05T07:12:16.976Z,100506.34
2023-12-05T07:15:17.638Z,100509.47
2023-12-05T07:18:07.213Z,100499.94
2023-12-05T07:21:00.603Z,100501.41
2023-12-05T07:24:00.742Z,100501.97
2023-12-05T07:26:54.075Z,100507.22
2023-12-05T07:29:43.752Z,100504.03
2023-12-05T07:32:32.798Z,100496.22
2023-12-05T07:35:22.332Z,100497.13
2023-12-05T07:38:12.951Z,100489.16
2023-12-05T07:41:01.437Z,100491.16
2023-12-05T07:43:55.860Z,100487.97
2023-12-05T07:46:50.744Z,100487.06
2023-12-05T07:49:39.877Z,100492.69
2023-12-05T07:52:36.275Z,100485.31
2023-12-05T07:55:30.416Z,100483.19
2023-12-05T07:58:25.495Z,100492.00
2023-12-05T08:01:19.819Z,100480.66
2023-12-05T08:04:24.996Z,100476.75
2023-12-05T08:07:17.039Z,100473.25
2023-12-05T08:10:11.632Z,100467.88
2023-12-05T08:13:05.556Z,100478.34
2023-12-05T08:19:00.486Z,100468.09
2023-12-05T08:21:52.313Z,100459.09
2023-12-05T08:24:41.333Z,100466.47
2023-12-05T08:27:32.242Z,100467.09
2023-12-05T08:30:23.609Z,100467.28
2023-12-05T08:33:12.515Z,100471.78
2023-12-05T08:36:04.741Z,100473.63
2023-12-05T08:39:05.452Z,100469.09
2023-12-05T08:41:56.584Z,100473.94
2023-12-05T08:44:47.859Z,100480.63
2023-12-05T08:47:43.098Z,100483.41
2023-12-05T08:50:40.722Z,100489.88
2023-12-05T08:53:31.870Z,100489.69
2023-12-05T08:56:23.920Z,100495.56
2023-12-05T08:59:14.647Z,100482.91
2023-12-05T09:02:08.921Z,100499.03
2023-12-05T09:04:59.891Z,100476.06
2023-12-05T09:07:50.891Z,100494.81
2023-12-05T09:10:40.190Z,100494.56
2023-12-05T09:13:28.690Z,100500.47
2023-12-05T09:16:25.535Z,100498.56
2023-12-05T09:19:16.690Z,100501.13
2023-12-05T09:22:06.567Z,100494.31
2023-12-05T09:24:54.246Z,100500.78
2023-12-05T09:27:41.845Z,100498.72
2023-12-05T09:30:30.047Z,100489.72
2023-12-05T09:33:17.956Z,100487.84
2023-12-05T09:36:06.032Z,100500.19
2023-12-05T09:38:54.934Z,100502.03
2023-12-05T09:41:48.955Z,100493.50
2023-12-05T09:44:36.968Z,100496.34
2023-12-05T09:47:26.732Z,100492.66
2023-12-05T09:50:15.275Z,100471.50
2023-12-05T09:53:06.653Z,100497.81
2023-12-05T09:55:55.599Z,100496.09
2023-12-05T09:58:45.891Z,100486.75
2023-12-05T10:01:37.100Z,100482.63
2023-12-05T10:04:25.742Z,100481.66
2023-12-05T10:07:14.539Z,100473.22
2023-12-05T10:10:05.245Z,100473.81
2023-12-05T10:12:53.841Z,100469.47
2023-12-05T10:15:42.416Z,100467.78
2023-12-05T10:18:30.305Z,100463.69
2023-12-05T10:21:17.624Z,100455.81
2023-12-05T10:24:08.276Z,100455.56
2023-12-05T10:26:59.845Z,100453.41
2023-12-05T10:29:47.992Z,100449.72
2023-12-05T10:32:36.204Z,100451.03
2023-12-05T10:35:31.050Z,100448.03
2023-12-05T10:38:20.189Z,100442.66
2023-12-05T10:41:08.362Z,100438.44
2023-12-05T10:43:57.601Z,100437.56
2023-12-05T10:46:46.328Z,100434.09
2023-12-05T10:49:36.180Z,100433.31
2023-12-05T10:52:23.766Z,100429.50
2023-12-05T10:55:13.780Z,100421.38
2023-12-05T10:58:01.413Z,100419.16
2023-12-05T11:00:50.608Z,100422.13
2023-12-05T11:03:38.997Z,100411.41
2023-12-05T11:06:27.006Z,100418.72
2023-12-05T11:09:14.206Z,100416.41
2023-12-05T11:12:06.775Z,100410.63
2023-12-05T11:14:57.685Z,100409.09
2023-12-05T11:17:51.628Z,100413.13
2023-12-05T11:20:59.971Z,100409.88
2023-12-05T11:24:09.299Z,100407.72
2023-12-05T11:27:09.942Z,100406.75
2023-12-05T11:30:17.820Z,100405.28
2023-12-05T11:33:14.058Z,100408.66
2023-12-05T11:36:14.210Z,100407.38
2023-12-05T11:39:02.031Z,100401.00
2023-12-05T11:42:30.588Z,100401.53
2023-12-05T11:45:24.933Z,100402.91
2023-12-05T11:48:13.429Z,100404.03
2023-12-05T11:50:59.984Z,100401.88
2023-12-05T11:53:51.818Z,100399.72
2023-12-05T11:56:38.872Z,100402.91
2023-12-05T11:59:25.995Z,100407.25
2023-12-05T12:02:18.734Z,100409.09
2023-12-05T12:05:07.660Z,100401.69
2023-12-05T12:07:58.298Z,100390.25
2023-12-05T12:10:47.002Z,100399.25
2023-12-05T12:13:33.688Z,100387.66
2023-12-05T12:16:22.346Z,100399.50
2023-12-05T12:19:13.195Z,100397.22
2023-12-05T12:22:10.172Z,100398.06
2023-12-05T12:25:11.245Z,100405.47
2023-12-05T12:28:00.600Z,100406.53
2023-12-05T12:30:48.706Z,100405.34
2023-12-05T12:33:40.128Z,100403.22
2023-12-05T12:36:27.653Z,100407.41
2023-12-05T12:39:16.803Z,100398.91
2023-12-05T12:42:04.164Z,100396.88
2023-12-05T12:44:56.019Z,100396.63
2023-12-05T12:47:44.349Z,100399.53
2023-12-05T12:50:33.567Z,100400.41
2023-12-05T12:53:20.689Z,100401.47
2023-12-05T12:56:11.153Z,100406.00
2023-12-05T12:59:00.851Z,100393.34
2023-12-05T13:01:50.649Z,100396.31
2023-12-05T13:04:38.523Z,100396.28
2023-12-05T13:07:26.799Z,100392.50
2023-12-05T13:10:14.330Z,100395.03
2023-12-05T13:13:05.911Z,100400.13
2023-12-05T13:15:53.295Z,100400.38
2023-12-05T13:18:45.987Z,100398.25
2023-12-05T13:21:34.840Z,100398.91
2023-12-05T13:24:22.663Z,100398.72
2023-12-05T13:27:10.484Z,100405.78
2023-12-05T13:29:59.299Z,100403.06
2023-12-05T13:32:46.872Z,100405.59
2023-12-05T13:35:35.053Z,100398.81
2023-12-05T13:38:22.648Z,100404.41
2023-12-05T13:41:10.100Z,100403.25
2023-12-05T13:43:56.974Z,100400.38
2023-12-05T13:46:44.019Z,100405.38
2023-12-05T13:49:30.872Z,100401.25
2023-12-05T13:52:19.717Z,100406.25
2023-12-05T13:55:07.679Z,100419.41
2023-12-05T13:57:54.928Z,100413.06
2023-12-05T14:00:41.949Z,100419.31
2023-12-05T14:03:28.465Z,100419.31
2023-12-05T14:06:15.279Z,100412.06
2023-12-05T14:09:04.012Z,100417.66
2023-12-05T14:11:50.895Z,100415.94
2023-12-05T14:14:37.828Z,100417.53
2023-12-05T14:17:24.781Z,100417.28
2023-12-05T14:20:11.994Z,100420.34
2023-12-05T14:22:58.911Z,100427.63
2023-12-05T14:25:47.300Z,100429.56
2023-12-05T14:28:34.124Z,100425.53
2023-12-05T14:31:20.955Z,100435.00
2023-12-05T14:34:09.507Z,100426.09
2023-12-05T14:36:56.141Z,100421.78
2023-12-05T14:39:45.243Z,100431.66
2023-12-05T14:42:36.634Z,100434.00
2023-12-05T14:45:26.491Z,100436.41
2023-12-05T14:48:15.244Z,100438.13
2023-12-05T14:51:01.963Z,100437.78
2023-12-05T14:53:48.661Z,100437.09
2023-12-05T14:56:35.537Z,100436.25
2023-12-05T14:59:23.911Z,100434.19
2023-12-05T15:02:10.825Z,100440.00
2023-12-05T15:04:58.075Z,100430.28
2023-12-05T15:07:45.238Z,100432.47
2023-12-05T15:10:32.339Z,100433.97
2023-12-05T15:13:19.124Z,100436.53
2023-12-05T15:16:08.683Z,100440.19
2023-12-05T15:18:55.499Z,100452.00
2023-12-05T15:21:42.192Z,100436.16
2023-12-05T15:24:29.166Z,100439.81
2023-12-05T15:27:16.176Z,100444.13
2023-12-05T15:30:04.302Z,100436.16
2023-12-05T15:32:54.587Z,100451.50
2023-12-05T15:35:41.432Z,100441.56
2023-12-05T15:38:29.110Z,100447.44
2023-12-05T15:41:17.034Z,100447.59
2023-12-05T15:44:04.565Z,100452.91
2023-12-05T15:46:51.236Z,100455.09
2023-12-05T15:49:39.542Z,100456.91
2023-12-05T15:52:26.208Z,100454.63
2023-12-05T15:55:13.071Z,100468.97
2023-12-05T15:58:00.192Z,100457.09
2023-12-05T16:00:58.617Z,100455.81
2023-12-05T16:03:47.807Z,100457.06
2023-12-05T16:06:35.783Z,100464.88
2023-12-05T16:09:24.760Z,100457.84
2023-12-05T16:12:11.387Z,100468.34
2023-12-05T16:14:58.249Z,100480.84
2023-12-05T16:17:45.196Z,100470.78
2023-12-05T16:20:32.004Z,100469.28
2023-12-05T16:23:20.933Z,100465.53
2023-12-05T16:26:08.782Z,100469.06
2023-12-05T16:28:55.747Z,100467.22
2023-12-05T16:31:42.657Z,100459.19
2023-12-05T16:34:29.623Z,100461.59
2023-12-05T16:37:17.381Z,100463.09
2023-12-05T16:40:05.837Z,100458.88
2023-12-05T16:42:52.651Z,100467.53
2023-12-05T16:45:39.647Z,100464.09
2023-12-05T16:48:26.484Z,100464.63
2023-12-05T16:51:13.151Z,100473.06
2023-12-05T16:54:00.214Z,100472.69
2023-12-05T16:56:48.817Z,100471.53
2023-12-05T16:59:35.880Z,100474.50
2023-12-05T17:02:22.592Z,100479.88
2023-12-05T17:05:10.439Z,100478.09
2023-12-05T17:07:57.371Z,100476.31
2023-12-05T17:10:43.953Z,100478.97
2023-12-05T17:13:32.066Z,100478.88
2023-12-05T17:16:19.156Z,100482.59
2023-12-05T17:19:05.920Z,100478.28
2023-12-05T17:21:52.676Z,100472.72
2023-12-05T17:24:39.617Z,100483.88
2023-12-05T17:27:26.456Z,100487.78
2023-12-05T17:30:15.279Z,100487.31
2023-12-05T17:33:02.339Z,100493.72
2023-12-05T17:35:49.199Z,100499.69
2023-12-05T17:38:36.007Z,100512.44
2023-12-05T17:41:22.885Z,100464.44
2023-12-05T17:44:09.882Z,100502.47
2023-12-05T17:46:58.427Z,100502.09
2023-12-05T17:49:45.470Z,100505.56
2023-12-05T17:52:32.343Z,100507.13
2023-12-05T17:55:19.471Z,100497.22
2023-12-05T17:58:06.438Z,100500.41
2023-12-05T18:00:53.292Z,100494.72
2023-12-05T18:03:41.533Z,100497.16
2023-12-05T18:06:29.581Z,100498.16
2023-12-05T18:09:18.034Z,100483.22
2023-12-05T18:12:06.476Z,100497.47
2023-12-05T18:14:54.268Z,100496.88
2023-12-05T18:17:42.790Z,100501.50
2023-12-05T18:20:38.955Z,100498.56
2023-12-05T18:23:29.082Z,100499.03
2023-12-05T18:26:17.741Z,100503.88
2023-12-05T18:29:05.001Z,100500.63
2023-12-05T18:31:51.923Z,100495.69
2023-12-05T18:34:38.794Z,100497.72
2023-12-05T18:37:27.011Z,100501.25
2023-12-05T18:40:14.171Z,100495.13
2023-12-05T18:43:01.104Z,100497.56
2023-12-05T18:45:47.926Z,100494.75
2023-12-05T18:48:35.171Z,100507.88
2023-12-05T18:51:22.560Z,100508.03
2023-12-05T18:54:11.469Z,100502.06
2023-12-05T18:56:58.703Z,100509.50
2023-12-05T18:59:45.432Z,100506.38
2023-12-05T19:02:32.972Z,100513.31
2023-12-05T19:05:20.571Z,100507.44
2023-12-05T19:08:07.381Z,100507.91
2023-12-05T19:10:55.455Z,100513.47
2023-12-05T19:13:42.661Z,100517.38
2023-12-05T19:16:29.316Z,100513.44
2023-12-05T19:19:16.448Z,100519.28
2023-12-05T19:22:04.945Z,100508.06
2023-12-05T19:24:51.698Z,100509.41
2023-12-05T19:27:40.550Z,100512.31
2023-12-05T19:30:27.246Z,100525.06
2023-12-05T19:33:14.027Z,100523.69
2023-12-05T19:36:00.876Z,100516.38
2023-12-05T19:38:47.738Z,100527.53
2023-12-05T19:41:34.532Z,100525.66
2023-12-05T19:44:22.813Z,100531.69
2023-12-05T19:47:09.587Z,100531.34
2023-12-05T19:49:56.583Z,100527.63
2023-12-05T19:52:43.555Z,100526.28
2023-12-05T19:55:30.467Z,100519.41
2023-12-05T19:58:17.522Z,100529.84
2023-12-05T20:01:05.810Z,100525.13
2023-12-05T20:03:52.782Z,100528.63
2023-12-05T20:06:39.747Z,100519.06
2023-12-05T20:09:26.665Z,100524.00
2023-12-05T20:12:13.542Z,100518.06
2023-12-05T20:15:00.748Z,100513.28
2023-12-05T20:17:49.216Z,100521.75
2023-12-05T20:20:36.131Z,100522.91
2023-12-05T20:23:24.008Z,100528.16
2023-12-05T20:26:10.746Z,100523.34
2023-12-05T20:28:57.477Z,100522.41
2023-12-05T20:31:44.301Z,100522.84
2023-12-05T20:34:33.063Z,100520.72
2023-12-05T20:37:19.675Z,100524.56
2023-12-05T20:40:07.110Z,100530.53
2023-12-05T20:42:53.820Z,100533.34
2023-12-05T20:45:42.609Z,100526.34
2023-12-05T20:48:43.792Z,100532.47
2023-12-05T20:51:44.980Z,100532.91
2023-12-05T20:54:46.133Z,100526.94
2023-12-05T20:57:46.987Z,100528.47
2023-12-05T21:00:35.140Z,100526.00
2023-12-05T21:03:22.077Z,100528.41
2023-12-05T21:06:09.896Z,100526.38
2023-12-05T21:09:11.299Z,100531.47
2023-12-05T21:12:00.852Z,100523.88
2023-12-05T21:14:47.531Z,100525.81
2023-12-05T21:17:35.492Z,100523.69
2023-12-05T21:20:23.344Z,100529.78
2023-12-05T21:23:10.109Z,100524.03
2023-12-05T21:25:58.460Z,100530.28
2023-12-05T21:28:48.043Z,100532.78
2023-12-05T21:31:36.238Z,100479.88
2023-12-05T21:34:23.103Z,100534.97
2023-12-05T21:37:09.984Z,100540.50
2023-12-05T21:39:57.346Z,100537.22
2023-12-05T21:42:45.641Z,100539.47
2023-12-05T21:45:32.237Z,100544.22
2023-12-05T21:48:19.327Z,100542.13
2023-12-05T21:51:06.728Z,100545.97
2023-12-05T21:53:53.321Z,100542.44
2023-12-05T21:56:40.187Z,100535.63
2023-12-05T21:59:28.336Z,100539.16
2023-12-05T22:02:15.340Z,100545.25
2023-12-05T22:05:02.336Z,100541.31
2023-12-05T22:07:49.093Z,100540.16
2023-12-05T22:10:36.130Z,100534.88
2023-12-05T22:13:22.892Z,100534.13
2023-12-05T22:16:11.478Z,100535.47
2023-12-05T22:18:58.420Z,100537.03
2023-12-05T22:21:45.850Z,100527.38
2023-12-05T22:24:33.347Z,100542.03
2023-12-05T22:27:20.473Z,100540.09
2023-12-05T22:30:08.628Z,100550.41
2023-12-05T22:32:56.547Z,100541.41
2023-12-05T22:35:50.326Z,100538.28
2023-12-05T22:38:40.107Z,100541.13
2023-12-05T22:41:26.968Z,100537.19
2023-12-05T22:44:13.814Z,100539.84
2023-12-05T22:47:04.253Z,100550.13
2023-12-05T22:49:52.743Z,100548.16
2023-12-05T22:52:39.598Z,100549.75
2023-12-05T22:55:26.536Z,100548.31
2023-12-05T22:58:19.725Z,100545.56
2023-12-05T23:01:10.003Z,100549.09
2023-12-05T23:03:57.113Z,100541.25
2023-12-05T23:06:45.284Z,100546.34
2023-12-05T23:09:32.079Z,100546.34
2023-12-05T23:12:19.001Z,100550.34
2023-12-05T23:15:06.858Z,100539.69
2023-12-05T23:17:53.756Z,100548.53
2023-12-05T23:20:43.750Z,100550.09
2023-12-05T23:23:37.289Z,100541.88
2023-12-05T23:26:25.737Z,100546.34
2023-12-05T23:29:13.808Z,100540.53
2023-12-05T23:32:00.620Z,100542.50
2023-12-05T23:34:47.489Z,100542.88
2023-12-05T23:37:34.559Z,100535.59
2023-12-05T23:40:22.741Z,100535.28
2023-12-05T23:43:09.712Z,100537.44
2023-12-05T23:45:56.396Z,100536.44
2023-12-05T23:48:43.352Z,100523.09
2023-12-05T23:51:31.107Z,100527.94
2023-12-05T23:54:17.983Z,100534.19
2023-12-05T23:57:08.775Z,100543.50
2023-12-05T23:59:57.251Z,100552.75
